Time;durP1;ratioP1;P1;durP2;ratioP2;P2;SDS_P1;SDS_P2;PMS_P1;PMS_P2;Temp;Humidity;BMP_temperature;BMP_pressure;BME280_temperature;BME280_humidity;BME280_pressure;Samples;Min_cycle;Max_cycle;Signal;HPM_P1;HPM_P2
2023/09/29 00:00:33;;;;;;;34.22;29.90;;;;;;;-148.88;100.00;-17125.47;5031233;28;20400;-74
2023/09/29 00:02:59;;;;;;;33.10;29.00;;;;;;;-148.88;100.00;-17125.47;5032307;28;20083;-74
2023/09/29 00:05:26;;;;;;;36.53;30.00;;;;;;;-148.88;100.00;-17125.47;5032241;28;20030;-74
2023/09/29 00:07:52;;;;;;;34.80;28.90;;;;;;;-148.88;100.00;-17125.47;5032467;28;20017;-74
2023/09/29 00:10:20;;;;;;;31.83;28.38;;;;;;;-148.88;100.00;-17125.47;5030908;28;20494;-74
2023/09/29 00:12:48;;;;;;;35.67;28.73;;;;;;;-148.88;100.00;-17125.47;5032229;28;20029;-74
2023/09/29 00:15:14;;;;;;;39.42;30.83;;;;;;;-148.88;100.00;-17125.47;5032187;28;20100;-74
2023/09/29 00:17:40;;;;;;;34.28;30.50;;;;;;;-148.88;100.00;-17125.47;5030803;28;20026;-74
2023/09/29 00:22:38;;;;;;;37.38;29.23;;;;;;;-148.88;100.00;-17125.47;5032128;28;20116;-74
2023/09/29 00:25:05;;;;;;;32.72;28.25;;;;;;;-148.88;100.00;-17125.47;5032011;28;20056;-75
2023/09/29 00:27:30;;;;;;;34.22;28.58;;;;;;;-148.88;100.00;-17125.47;5032315;28;20021;-74
2023/09/29 00:29:56;;;;;;;33.13;28.40;;;;;;;-148.88;100.00;-17125.47;5032001;28;20029;-74
2023/09/29 00:32:21;;;;;;;33.13;27.75;;;;;;;-148.88;100.00;-17125.47;5031989;28;20036;-74
2023/09/29 00:34:47;;;;;;;30.38;27.10;;;;;;;-148.88;100.00;-17125.47;5032087;28;20478;-74
2023/09/29 00:37:12;;;;;;;32.72;28.15;;;;;;;-148.88;100.00;-17125.47;5034938;28;20492;-74
2023/09/29 00:39:40;;;;;;;37.60;28.88;;;;;;;-148.88;100.00;-17125.47;5034651;28;20021;-74
2023/09/29 00:42:06;;;;;;;33.05;28.40;;;;;;;-148.88;100.00;-17125.47;5036011;28;20450;-74
2023/09/29 00:44:34;;;;;;;31.95;28.55;;;;;;;-148.88;100.00;-17125.47;5035963;28;20521;-74
2023/09/29 00:47:01;;;;;;;32.10;28.65;;;;;;;-148.88;100.00;-17125.47;5035818;28;20021;-74
2023/09/29 00:49:29;;;;;;;36.13;30.75;;;;;;;-148.88;100.00;-17125.47;5036030;28;20444;-74
2023/09/29 00:52:00;;;;;;;35.17;29.63;;;;;;;-148.88;100.00;-17125.47;5035865;28;20482;-74
2023/09/29 00:54:32;;;;;;;35.95;30.17;;;;;;;-148.88;100.00;-17125.47;5034576;28;20025;-74
2023/09/29 00:56:59;;;;;;;39.87;30.40;;;;;;;-148.88;100.00;-17125.47;5035766;28;20497;-74
2023/09/29 00:59:26;;;;;;;33.95;30.05;;;;;;;-148.88;100.00;-17125.47;5035622;28;20022;-74
2023/09/29 01:01:52;;;;;;;35.10;30.98;;;;;;;-148.88;100.00;-17125.47;5035540;28;20433;-75
2023/09/29 01:04:18;;;;;;;35.88;30.23;;;;;;;-148.88;100.00;-17125.47;5035586;28;20025;-74
2023/09/29 01:06:45;;;;;;;35.72;29.40;;;;;;;-148.88;100.00;-17125.47;5034155;28;20025;-74
2023/09/29 01:09:11;;;;;;;32.60;29.15;;;;;;;-148.88;100.00;-17125.47;5035577;28;20017;-74
2023/09/29 01:11:43;;;;;;;34.00;27.77;;;;;;;-148.88;100.00;-17125.47;5035438;28;20036;-74
2023/09/29 01:14:13;;;;;;;34.17;27.45;;;;;;;-148.88;100.00;-17125.47;5035419;28;20057;-74
2023/09/29 01:16:40;;;;;;;30.83;26.35;;;;;;;-148.88;100.00;-17125.47;5034086;28;20025;-74
2023/09/29 01:19:11;;;;;;;32.58;26.38;;;;;;;-148.88;100.00;-17125.47;5033989;28;20121;-74
2023/09/29 01:21:46;;;;;;;29.30;25.50;;;;;;;-148.88;100.00;-17125.47;5035105;28;20025;-74
2023/09/29 01:24:13;;;;;;;29.80;25.90;;;;;;;-148.88;100.00;-17125.47;5035185;28;20561;-74
2023/09/29 01:26:38;;;;;;;31.70;24.67;;;;;;;-148.88;100.00;-17125.47;5035111;28;20025;-74
2023/09/29 01:29:05;;;;;;;31.52;25.42;;;;;;;-148.88;100.00;-17125.47;5034988;28;20474;-74
2023/09/29 01:31:33;;;;;;;26.70;23.65;;;;;;;-148.88;100.00;-17125.47;5035132;28;20029;-74
2023/09/29 01:33:59;;;;;;;26.35;23.48;;;;;;;-148.88;100.00;-17125.47;5035047;28;20111;-74
2023/09/29 01:36:24;;;;;;;25.30;22.63;;;;;;;-148.88;100.00;-17125.47;5035017;28;20017;-74
2023/09/29 01:38:50;;;;;;;23.65;21.15;;;;;;;-148.88;100.00;-17125.47;5033668;28;20056;-74
2023/09/29 01:41:15;;;;;;;24.25;21.63;;;;;;;-148.88;100.00;-17125.47;5034959;28;20389;-74
2023/09/29 01:43:41;;;;;;;23.58;20.85;;;;;;;-148.88;100.00;-17125.47;5034949;28;20025;-74
2023/09/29 01:46:09;;;;;;;24.90;19.95;;;;;;;-148.88;100.00;-17125.47;5034916;28;20026;-74
2023/09/29 01:48:35;;;;;;;22.65;20.23;;;;;;;-148.88;100.00;-17125.47;5033622;28;20056;-74
2023/09/29 01:51:03;;;;;;;23.20;19.33;;;;;;;-148.88;100.00;-17125.47;5033349;28;20030;-74
2023/09/29 01:53:30;;;;;;;22.95;18.25;;;;;;;-148.88;100.00;-17125.47;5034902;28;20029;-74
2023/09/29 01:55:56;;;;;;;20.67;18.50;;;;;;;-148.88;100.00;-17125.47;5033352;28;20025;-74
2023/09/29 01:58:22;;;;;;;20.35;18.17;;;;;;;-148.88;100.00;-17125.47;5033592;28;20022;-74
2023/09/29 02:00:48;;;;;;;22.17;17.25;;;;;;;-148.88;100.00;-17125.47;5033226;28;20504;-74
2023/09/29 02:03:13;;;;;;;18.98;16.73;;;;;;;-148.88;100.00;-17125.47;5034474;28;20040;-74
2023/09/29 02:05:39;;;;;;;19.33;16.02;;;;;;;-148.88;100.00;-17125.47;5034439;28;20030;-74
2023/09/29 02:08:05;;;;;;;20.40;15.27;;;;;;;-148.88;100.00;-17125.47;5034200;28;20089;-74
2023/09/29 02:10:30;;;;;;;17.60;14.13;;;;;;;-148.88;100.00;-17125.47;5034603;28;20068;-74
2023/09/29 02:12:58;;;;;;;16.15;14.45;;;;;;;-148.88;100.00;-17125.47;5034336;28;20491;-74
2023/09/29 02:15:24;;;;;;;18.00;14.02;;;;;;;-148.88;100.00;-17125.47;5034254;28;20021;-74
2023/09/29 02:17:50;;;;;;;16.80;13.65;;;;;;;-148.88;100.00;-17125.47;5034245;28;20026;-75
2023/09/29 02:20:28;;;;;;;17.75;13.13;;;;;;;-148.88;100.00;-17125.47;5034156;28;20539;-74
2023/09/29 02:22:55;;;;;;;16.40;12.45;;;;;;;-148.88;100.00;-17125.47;5033950;28;20136;-74
2023/09/29 02:25:25;;;;;;;16.65;12.23;;;;;;;-148.88;100.00;-17125.47;5034124;28;20557;-74
2023/09/29 02:27:54;;;;;;;13.18;11.43;;;;;;;-148.88;100.00;-17125.47;5032684;28;20048;-74
2023/09/29 02:30:19;;;;;;;14.35;11.70;;;;;;;-148.88;100.00;-17125.47;5033072;28;20587;-74
2023/09/29 02:32:47;;;;;;;13.32;11.25;;;;;;;-148.88;100.00;-17125.47;5034351;28;20109;-74
2023/09/29 02:35:13;;;;;;;12.73;10.68;;;;;;;-148.88;100.00;-17125.47;5033985;28;20433;-75
2023/09/29 02:37:39;;;;;;;14.30;11.07;;;;;;;-148.88;100.00;-17125.47;5034022;28;20090;-74
2023/09/29 02:40:08;;;;;;;12.43;10.88;;;;;;;-148.88;100.00;-17125.47;5033790;28;20467;-74
2023/09/29 02:42:34;;;;;;;12.55;10.80;;;;;;;-148.88;100.00;-17125.47;5033827;28;20112;-75
2023/09/29 02:44:59;;;;;;;16.02;11.55;;;;;;;-148.88;100.00;-17125.47;5033723;28;20569;-74
2023/09/29 02:47:25;;;;;;;14.48;10.65;;;;;;;-148.88;100.00;-17125.47;5033789;28;20122;-74
2023/09/29 02:49:50;;;;;;;15.50;10.32;;;;;;;-148.88;100.00;-17125.47;5033540;28;20397;-74
2023/09/29 02:52:15;;;;;;;14.38;9.77;;;;;;;-148.88;100.00;-17125.47;5032709;28;20021;-74
2023/09/29 02:54:41;;;;;;;14.90;9.10;;;;;;;-148.88;100.00;-17125.47;5032379;28;20040;-74
2023/09/29 02:57:07;;;;;;;12.23;9.30;;;;;;;-148.88;100.00;-17125.47;5033901;28;20025;-74
2023/09/29 02:59:33;;;;;;;9.80;8.75;;;;;;;-148.88;100.00;-17125.47;5032768;28;20144;-74
2023/09/29 03:02:00;;;;;;;10.88;8.80;;;;;;;-148.88;100.00;-17125.47;5032318;28;20109;-74
2023/09/29 03:04:26;;;;;;;11.57;8.73;;;;;;;-148.88;100.00;-17125.47;5033840;28;20025;-74
2023/09/29 03:06:52;;;;;;;9.48;8.45;;;;;;;-148.88;100.00;-17125.47;5032181;28;20099;-74
2023/09/29 03:09:18;;;;;;;13.10;8.75;;;;;;;-148.88;100.00;-17125.47;5031760;28;20049;-74
2023/09/29 03:11:44;;;;;;;12.60;8.63;;;;;;;-148.88;100.00;-17125.47;5031660;28;20110;-74
2023/09/29 03:14:09;;;;;;;12.60;8.40;;;;;;;-148.88;100.00;-17125.47;5033293;28;20124;-74
2023/09/29 03:16:35;;;;;;;10.55;8.10;;;;;;;-148.88;100.00;-17125.47;5032848;28;20033;-75
2023/09/29 03:19:02;;;;;;;10.65;7.95;;;;;;;-148.88;100.00;-17125.47;5032747;28;20496;-74
2023/09/29 03:21:27;;;;;;;11.98;8.05;;;;;;;-148.88;100.00;-17125.47;5032444;28;20034;-75
2023/09/29 03:23:52;;;;;;;12.55;8.52;;;;;;;-148.88;100.00;-17125.47;5032713;28;20128;-74
2023/09/29 03:26:20;;;;;;;12.18;8.00;;;;;;;-148.88;100.00;-17125.47;5032544;28;20068;-74
2023/09/29 03:28:45;;;;;;;10.75;8.27;;;;;;;-148.88;100.00;-17125.47;5032715;28;20104;-74
2023/09/29 03:31:11;;;;;;;12.20;7.97;;;;;;;-148.88;100.00;-17125.47;5032677;28;20067;-74
2023/09/29 03:33:36;;;;;;;9.25;8.00;;;;;;;-148.88;100.00;-17125.47;5031086;28;20025;-75
2023/09/29 03:36:03;;;;;;;10.45;7.70;;;;;;;-148.88;100.00;-17125.47;5032767;28;20028;-75
2023/09/29 03:38:30;;;;;;;11.65;7.65;;;;;;;-148.88;100.00;-17125.47;5034072;28;20031;-81
2023/09/29 03:40:56;;;;;;;10.25;7.88;;;;;;;-148.88;100.00;-17125.47;5034847;28;20030;-76
2023/09/29 03:43:25;;;;;;;9.90;7.47;;;;;;;-148.88;100.00;-17125.47;5031142;28;20026;-76
2023/09/29 03:45:51;;;;;;;8.65;6.95;;;;;;;-148.88;100.00;-17125.47;5032347;28;20032;-76
2023/09/29 03:48:17;;;;;;;8.93;7.13;;;;;;;-148.88;100.00;-17125.47;5032232;28;20458;-77
2023/09/29 03:50:43;;;;;;;14.98;7.70;;;;;;;-148.88;100.00;-17125.47;5032229;28;20044;-76
2023/09/29 03:53:09;;;;;;;12.15;7.57;;;;;;;-148.88;100.00;-17125.47;5030953;28;20021;-76
2023/09/29 03:55:34;;;;;;;8.65;6.80;;;;;;;-148.88;100.00;-17125.47;5032231;28;20022;-76
2023/09/29 03:58:00;;;;;;;9.02;6.72;;;;;;;-148.88;100.00;-17125.47;5032242;28;20040;-77
2023/09/29 04:00:26;;;;;;;9.65;6.55;;;;;;;-148.88;100.00;-17125.47;5032266;28;20381;-76
2023/09/29 04:02:52;;;;;;;9.27;6.90;;;;;;;-148.88;100.00;-17125.47;5032038;28;20393;-75
2023/09/29 04:05:18;;;;;;;8.27;6.72;;;;;;;-148.88;100.00;-17125.47;5032114;28;20064;-75
2023/09/29 04:07:44;;;;;;;10.23;7.25;;;;;;;-148.88;100.00;-17125.47;5030775;28;20063;-75
2023/09/29 04:10:11;;;;;;;10.07;6.40;;;;;;;-148.88;100.00;-17125.47;5031744;28;20049;-76
2023/09/29 04:12:38;;;;;;;8.30;6.25;;;;;;;-148.88;100.00;-17125.47;5031101;28;20033;-75
2023/09/29 04:15:04;;;;;;;8.98;6.57;;;;;;;-148.88;100.00;-17125.47;5032079;28;20376;-75
2023/09/29 04:17:29;;;;;;;9.20;6.68;;;;;;;-148.88;100.00;-17125.47;5031290;28;20021;-75
2023/09/29 04:19:55;;;;;;;9.95;6.20;;;;;;;-148.88;100.00;-17125.47;5030683;28;20028;-75
2023/09/29 04:22:24;;;;;;;10.98;6.55;;;;;;;-148.88;100.00;-17125.47;5031874;28;20032;-75
2023/09/29 04:24:50;;;;;;;7.97;6.35;;;;;;;-148.88;100.00;-17125.47;5032008;28;20018;-75
2023/09/29 04:27:15;;;;;;;9.52;6.65;;;;;;;-148.88;100.00;-17125.47;5032116;28;20040;-75
2023/09/29 04:29:40;;;;;;;9.93;7.05;;;;;;;-148.88;100.00;-17125.47;5031861;28;20461;-75
2023/09/29 04:32:06;;;;;;;9.95;6.82;;;;;;;-148.88;100.00;-17125.47;5032207;28;20033;-75
2023/09/29 04:34:32;;;;;;;9.88;7.15;;;;;;;-148.88;100.00;-17125.47;5030422;28;20113;-75
2023/09/29 04:36:57;;;;;;;8.65;6.72;;;;;;;-148.88;100.00;-17125.47;5031643;28;20104;-75
2023/09/29 04:39:22;;;;;;;8.70;6.78;;;;;;;-148.88;100.00;-17125.47;5031732;28;20100;-75
2023/09/29 04:41:48;;;;;;;9.48;7.07;;;;;;;-148.88;100.00;-17125.47;5031870;28;20032;-76
2023/09/29 04:44:13;;;;;;;9.27;6.93;;;;;;;-148.88;100.00;-17125.47;5031991;28;20030;-75
2023/09/29 04:46:41;;;;;;;12.93;7.15;;;;;;;-148.88;100.00;-17125.47;5032142;28;20033;-76
2023/09/29 04:49:07;;;;;;;11.43;7.15;;;;;;;-148.88;100.00;-17125.47;5030697;28;20024;-75
2023/09/29 04:51:33;;;;;;;11.23;6.88;;;;;;;-148.88;100.00;-17125.47;5030753;28;20381;-76
2023/09/29 04:53:58;;;;;;;9.05;7.07;;;;;;;-148.88;100.00;-17125.47;5032207;28;20086;-76
2023/09/29 04:56:24;;;;;;;12.25;7.43;;;;;;;-148.88;100.00;-17125.47;5032155;28;20033;-78
2023/09/29 04:58:49;;;;;;;9.10;6.70;;;;;;;-148.88;100.00;-17125.47;5030681;28;20022;-76
2023/09/29 05:01:18;;;;;;;10.95;7.00;;;;;;;-148.88;100.00;-17125.47;5032039;28;20049;-76
2023/09/29 05:03:47;;;;;;;8.00;6.50;;;;;;;-148.88;100.00;-17125.47;5032335;28;20136;-76
2023/09/29 05:06:12;;;;;;;11.98;6.68;;;;;;;-148.88;100.00;-17125.47;5031790;28;20064;-76
2023/09/29 05:08:38;;;;;;;7.88;6.53;;;;;;;-148.88;100.00;-17125.47;5031905;28;20068;-76
2023/09/29 05:11:03;;;;;;;13.20;6.60;;;;;;;-148.88;100.00;-17125.47;5031617;28;20505;-76
2023/09/29 05:13:32;;;;;;;7.78;6.60;;;;;;;-148.88;100.00;-17125.47;5031864;28;20427;-76
2023/09/29 05:15:58;;;;;;;8.82;6.57;;;;;;;-148.88;100.00;-17125.47;5030494;28;20045;-76
2023/09/29 05:18:23;;;;;;;8.85;6.93;;;;;;;-148.88;100.00;-17125.47;5031884;28;20013;-75
2023/09/29 05:20:49;;;;;;;10.85;6.78;;;;;;;-148.88;100.00;-17125.47;5032305;28;20425;-75
2023/09/29 05:23:14;;;;;;;8.65;6.35;;;;;;;-148.88;100.00;-17125.47;5034476;28;20021;-76
2023/09/29 05:25:47;;;;;;;11.30;6.60;;;;;;;-148.88;100.00;-17125.47;5034226;28;20033;-76
2023/09/29 05:28:15;;;;;;;9.73;6.50;;;;;;;-148.88;100.00;-17125.47;5033910;28;20496;-76
2023/09/29 05:30:43;;;;;;;9.30;6.93;;;;;;;-148.88;100.00;-17125.47;5035412;28;20044;-76
2023/09/29 05:33:08;;;;;;;7.68;6.38;;;;;;;-148.88;100.00;-17125.47;5035344;28;20018;-76
2023/09/29 05:35:34;;;;;;;10.27;6.28;;;;;;;-148.88;100.00;-17125.47;5035194;28;20036;-76
2023/09/29 05:37:59;;;;;;;7.88;6.05;;;;;;;-148.88;100.00;-17125.47;5035195;28;20543;-76
2023/09/29 05:40:25;;;;;;;8.65;6.18;;;;;;;-148.88;100.00;-17125.47;5035006;28;20037;-76
2023/09/29 05:42:50;;;;;;;8.00;5.60;;;;;;;-148.88;100.00;-17125.47;5033908;28;20028;-77
2023/09/29 05:45:15;;;;;;;8.40;6.00;;;;;;;-148.88;100.00;-17125.47;5034921;28;20025;-76
2023/09/29 05:47:41;;;;;;;8.32;6.35;;;;;;;-148.88;100.00;-17125.47;5034829;28;20022;-76
2023/09/29 05:50:06;;;;;;;9.48;6.00;;;;;;;-148.88;100.00;-17125.47;5034766;28;20026;-76
2023/09/29 05:52:32;;;;;;;7.45;5.85;;;;;;;-148.88;100.00;-17125.47;5034820;28;20026;-76
2023/09/29 05:54:57;;;;;;;8.18;6.20;;;;;;;-148.88;100.00;-17125.47;5033556;28;20040;-76
2023/09/29 05:57:22;;;;;;;8.00;5.45;;;;;;;-148.88;100.00;-17125.47;5034994;28;20025;-76
2023/09/29 05:59:48;;;;;;;8.52;6.20;;;;;;;-148.88;100.00;-17125.47;5034761;28;20497;-76
2023/09/29 06:02:13;;;;;;;7.20;5.50;;;;;;;-148.88;100.00;-17125.47;5035301;28;20029;-77
2023/09/29 06:04:39;;;;;;;9.70;6.20;;;;;;;-148.88;100.00;-17125.47;5033735;28;20072;-77
2023/09/29 06:07:04;;;;;;;9.70;6.60;;;;;;;-148.88;100.00;-17125.47;5034878;28;20061;-76
2023/09/29 06:09:30;;;;;;;9.05;6.45;;;;;;;-148.88;100.00;-17125.47;5033332;28;20401;-77
2023/09/29 06:11:55;;;;;;;9.77;6.05;;;;;;;-148.88;100.00;-17125.47;5035059;28;20033;-77
2023/09/29 06:14:21;;;;;;;7.20;5.88;;;;;;;-148.88;100.00;-17125.47;5034669;28;20032;-77
2023/09/29 06:16:46;;;;;;;7.65;6.07;;;;;;;-148.88;100.00;-17125.47;5034619;28;20053;-76
2023/09/29 06:19:12;;;;;;;7.68;5.78;;;;;;;-148.88;100.00;-17125.47;5033506;28;20378;-76
2023/09/29 06:21:38;;;;;;;9.55;5.93;;;;;;;-148.88;100.00;-17125.47;5034585;28;20069;-77
2023/09/29 06:24:03;;;;;;;8.00;5.40;;;;;;;-148.88;100.00;-17125.47;5034371;28;20028;-77
2023/09/29 06:26:29;;;;;;;8.77;5.80;;;;;;;-148.88;100.00;-17125.47;5033260;28;20021;-76
2023/09/29 06:28:54;;;;;;;8.50;5.82;;;;;;;-148.88;100.00;-17125.47;5034286;28;20022;-76
2023/09/29 06:34:07;;;;;;;7.72;5.60;;;;;;;-148.88;100.00;-17125.47;5030758;28;20052;-76
2023/09/29 06:36:33;;;;;;;6.03;5.40;;;;;;;-148.88;100.00;-17125.47;5034235;28;20037;-76
2023/09/29 06:38:58;;;;;;;8.23;5.72;;;;;;;-148.88;100.00;-17125.47;5034210;28;20017;-76
2023/09/29 06:41:24;;;;;;;9.75;5.43;;;;;;;-148.88;100.00;-17125.47;5034060;28;20423;-76
2023/09/29 06:43:50;;;;;;;9.00;5.03;;;;;;;-148.88;100.00;-17125.47;5032761;28;20087;-77
2023/09/29 06:46:15;;;;;;;6.60;5.13;;;;;;;-148.88;100.00;-17125.47;5055810;23;20131;-91
2023/09/29 06:48:43;;;;;;;8.00;5.35;;;;;;;-148.88;100.00;-17125.47;5036071;28;20071;-89
2023/09/29 06:51:09;;;;;;;8.90;6.22;;;;;;;-148.88;100.00;-17125.47;5033963;28;20083;-89
2023/09/29 06:53:34;;;;;;;9.55;5.43;;;;;;;-148.88;100.00;-17125.47;5036057;28;20021;-89
2023/09/29 06:56:00;;;;;;;8.30;5.03;;;;;;;-148.88;100.00;-17125.47;5035235;28;20021;-88
2023/09/29 06:58:26;;;;;;;7.25;4.80;;;;;;;-148.88;100.00;-17125.47;5034128;28;20025;-89
2023/09/29 07:00:52;;;;;;;8.32;5.30;;;;;;;-148.88;100.00;-17125.47;5034910;28;20021;-91
2023/09/29 07:03:18;;;;;;;12.23;5.65;;;;;;;-148.88;100.00;-17125.47;5036938;28;20025;-91
2023/09/29 07:05:50;;;;;;;7.65;5.22;;;;;;;-148.88;100.00;-17125.47;5035958;28;20037;-90
2023/09/29 07:08:15;;;;;;;7.03;5.30;;;;;;;-148.88;100.00;-17125.47;5036362;28;20029;-90
2023/09/29 07:10:48;;;;;;;10.20;5.40;;;;;;;-148.88;100.00;-17125.47;5036394;28;20032;-89
2023/09/29 07:13:14;;;;;;;8.02;5.18;;;;;;;-148.88;100.00;-17125.47;5038610;28;20466;-90
2023/09/29 07:15:40;;;;;;;8.15;5.40;;;;;;;-148.88;100.00;-17125.47;5035202;28;20034;-90
2023/09/29 07:18:12;;;;;;;6.75;4.72;;;;;;;-148.88;100.00;-17125.47;5035439;28;20029;-90
2023/09/29 07:20:41;;;;;;;6.83;4.50;;;;;;;-148.88;100.00;-17125.47;5036490;28;20054;-90
2023/09/29 07:23:10;;;;;;;8.45;4.78;;;;;;;-148.88;100.00;-17125.47;5035422;28;20021;-89
2023/09/29 07:25:40;;;;;;;9.60;4.70;;;;;;;-148.88;100.00;-17125.47;5035184;28;20098;-91
2023/09/29 07:28:13;;;;;;;7.90;4.47;;;;;;;-148.88;100.00;-17125.47;5034658;28;20026;-90
2023/09/29 07:31:05;;;;;;;4.93;4.10;;;;;;;-148.88;100.00;-17125.47;5037951;28;20089;-88
2023/09/29 07:33:30;;;;;;;6.53;4.70;;;;;;;-148.88;100.00;-17125.47;5025319;28;20041;-85
2023/09/29 07:36:11;;;;;;;6.43;4.30;;;;;;;-148.88;100.00;-17125.47;5034499;28;20029;-85
2023/09/29 07:38:37;;;;;;;7.90;4.45;;;;;;;-148.88;100.00;-17125.47;5034370;28;20079;-85
2023/09/29 07:41:04;;;;;;;7.22;4.57;;;;;;;-148.88;100.00;-17125.47;5034330;28;20029;-86
2023/09/29 07:43:30;;;;;;;7.72;4.05;;;;;;;-148.88;100.00;-17125.47;5033369;28;20021;-85
2023/09/29 07:45:56;;;;;;;7.43;4.30;;;;;;;-148.88;100.00;-17125.47;5034356;28;20047;-85
2023/09/29 07:48:22;;;;;;;5.53;4.10;;;;;;;-148.88;100.00;-17125.47;5033592;28;20056;-86
2023/09/29 07:50:47;;;;;;;6.25;3.83;;;;;;;-148.88;100.00;-17125.47;5035873;28;20064;-86
2023/09/29 07:53:13;;;;;;;7.70;3.97;;;;;;;-148.88;100.00;-17125.47;5035167;28;20401;-86
2023/09/29 07:55:38;;;;;;;5.15;3.67;;;;;;;-148.88;100.00;-17125.47;5033217;28;20071;-86
2023/09/29 07:58:04;;;;;;;7.82;3.90;;;;;;;-148.88;100.00;-17125.47;5033515;28;20022;-86
2023/09/29 08:00:29;;;;;;;7.00;4.00;;;;;;;-148.88;100.00;-17125.47;5034521;28;20072;-86
2023/09/29 08:02:55;;;;;;;7.35;4.10;;;;;;;-148.88;100.00;-17125.47;5034933;28;20049;-87
2023/09/29 08:05:20;;;;;;;8.15;4.47;;;;;;;-148.88;100.00;-17125.47;5034199;28;20025;-86
2023/09/29 08:07:48;;;;;;;7.47;4.40;;;;;;;-148.88;100.00;-17125.47;5034062;28;20030;-86
2023/09/29 08:10:14;;;;;;;6.68;3.88;;;;;;;-148.88;100.00;-17125.47;5034023;28;20469;-86
2023/09/29 08:12:40;;;;;;;6.20;4.28;;;;;;;-148.88;100.00;-17125.47;5034280;28;20026;-87
2023/09/29 08:15:06;;;;;;;6.03;4.20;;;;;;;-148.88;100.00;-17125.47;5033409;28;20025;-87
2023/09/29 08:17:32;;;;;;;6.85;3.90;;;;;;;-148.88;100.00;-17125.47;5033053;28;20144;-86
2023/09/29 08:19:58;;;;;;;5.07;3.63;;;;;;;-148.88;100.00;-17125.47;5034041;28;20102;-86
2023/09/29 08:22:23;;;;;;;7.25;4.10;;;;;;;-148.88;100.00;-17125.47;5033478;28;20130;-86
2023/09/29 08:24:49;;;;;;;6.70;4.25;;;;;;;-148.88;100.00;-17125.47;5033678;28;20436;-87
2023/09/29 08:27:14;;;;;;;7.05;4.15;;;;;;;-148.88;100.00;-17125.47;5035167;28;20596;-87
2023/09/29 08:30:04;;;;;;;7.40;4.10;;;;;;;-148.88;100.00;-17125.47;5035075;28;20434;-87
2023/09/29 08:32:30;;;;;;;6.82;3.60;;;;;;;-148.88;100.00;-17125.47;5034374;28;20031;-86
2023/09/29 08:34:55;;;;;;;8.35;3.85;;;;;;;-148.88;100.00;-17125.47;5032852;28;20021;-87
2023/09/29 08:37:22;;;;;;;6.65;4.10;;;;;;;-148.88;100.00;-17125.47;5033728;28;20024;-86
2023/09/29 08:39:48;;;;;;;6.57;3.47;;;;;;;-148.88;100.00;-17125.47;5033589;28;20393;-86
2023/09/29 08:42:37;;;;;;;5.30;3.22;;;;;;;-148.88;100.00;-17125.47;5032550;28;20022;-87
2023/09/29 08:45:12;;;;;;;4.22;3.30;;;;;;;-148.88;100.00;-17125.47;5032117;28;20029;-86
2023/09/29 08:47:40;;;;;;;7.00;3.72;;;;;;;-148.88;100.00;-17125.47;5033122;28;20440;-87
2023/09/29 08:50:09;;;;;;;7.80;3.75;;;;;;;-148.88;100.00;-17125.47;5031716;28;20022;-86
2023/09/29 08:52:35;;;;;;;6.03;3.65;;;;;;;-148.88;100.00;-17125.47;5033201;28;20045;-87
2023/09/29 08:55:03;;;;;;;8.57;3.53;;;;;;;-148.88;100.00;-17125.47;5033099;28;20409;-86
2023/09/29 08:57:29;;;;;;;7.47;3.38;;;;;;;-148.88;100.00;-17125.47;5033608;28;20021;-86
2023/09/29 08:59:55;;;;;;;5.07;3.45;;;;;;;-148.88;100.00;-17125.47;5036435;28;20025;-87
2023/09/29 09:02:24;;;;;;;4.85;3.33;;;;;;;-148.88;100.00;-17125.47;5038044;28;20100;-86
2023/09/29 09:04:50;;;;;;;7.72;3.50;;;;;;;-148.88;100.00;-17125.47;5037880;28;20033;-87
2023/09/29 09:07:16;;;;;;;5.35;3.28;;;;;;;-148.88;100.00;-17125.47;5037730;28;20025;-87
2023/09/29 09:09:49;;;;;;;5.32;3.42;;;;;;;-148.88;100.00;-17125.47;5036905;28;20028;-86
2023/09/29 09:12:15;;;;;;;5.13;3.10;;;;;;;-148.88;100.00;-17125.47;5035813;28;20053;-88
2023/09/29 09:14:42;;;;;;;7.22;3.60;;;;;;;-148.88;100.00;-17125.47;5036019;28;20040;-87
2023/09/29 09:17:09;;;;;;;5.35;3.30;;;;;;;-148.88;100.00;-17125.47;5036677;28;20029;-87
2023/09/29 09:19:51;;;;;;;6.00;3.33;;;;;;;-148.88;100.00;-17125.47;5037026;28;20509;-87
2023/09/29 09:22:31;;;;;;;6.85;3.53;;;;;;;-148.88;100.00;-17125.47;5035486;28;20078;-87
2023/09/29 09:24:58;;;;;;;6.90;3.28;;;;;;;-148.88;100.00;-17125.47;5036240;28;20022;-86
2023/09/29 09:27:24;;;;;;;6.97;3.33;;;;;;;-148.88;100.00;-17125.47;5036566;28;20044;-87
2023/09/29 09:29:50;;;;;;;7.15;3.22;;;;;;;-148.88;100.00;-17125.47;5036912;28;20029;-87
2023/09/29 09:32:25;;;;;;;7.45;2.70;;;;;;;-148.88;100.00;-17125.47;5036356;28;20025;-87
2023/09/29 09:34:50;;;;;;;4.28;2.58;;;;;;;-148.88;98.99;-17125.47;5035673;28;20033;-87
2023/09/29 09:37:29;;;;;;;5.40;2.50;;;;;;;-148.88;99.23;-17125.47;5035924;28;20032;-88
2023/09/29 09:39:56;;;;;;;5.70;2.70;;;;;;;-148.88;98.14;-17125.47;5037162;28;20029;-89
2023/09/29 09:42:27;;;;;;;5.63;2.95;;;;;;;-148.88;98.99;-17125.47;5038256;28;20481;-87
2023/09/29 09:44:59;;;;;;;5.03;2.40;;;;;;;-148.88;98.77;-17125.47;5037411;28;20025;-88
2023/09/29 09:47:27;;;;;;;3.72;2.50;;;;;;;-148.88;100.00;-17125.47;5036174;28;20025;-87
2023/09/29 09:49:57;;;;;;;5.82;2.40;;;;;;;-148.88;100.00;-17125.47;5035649;28;20405;-87
2023/09/29 09:52:29;;;;;;;6.03;2.38;;;;;;;-148.88;99.57;-17125.47;5037184;28;20379;-87
2023/09/29 09:54:58;;;;;;;4.53;2.30;;;;;;;-148.88;99.02;-17125.47;5036285;28;20397;-86
2023/09/29 09:57:33;;;;;;;6.03;2.63;;;;;;;-148.88;99.50;-17125.47;5036442;28;20021;-87
2023/09/29 10:00:07;;;;;;;7.80;2.42;;;;;;;-148.88;99.71;-17125.47;5037413;28;20075;-88
2023/09/29 10:02:53;;;;;;;6.00;2.50;;;;;;;-148.88;98.35;-17125.47;5036788;28;20052;-85
2023/09/29 10:05:24;;;;;;;5.47;2.33;;;;;;;-148.88;99.16;-17125.47;5036720;28;20032;-87
2023/09/29 10:07:55;;;;;;;4.63;2.50;;;;;;;-148.88;97.31;-17125.47;5036248;28;20095;-87
2023/09/29 10:10:31;;;;;;;4.10;2.50;;;;;;;-148.88;94.60;-17125.47;5036504;28;20040;-88
2023/09/29 10:12:58;;;;;;;5.47;2.70;;;;;;;-148.88;95.96;-17125.47;5035597;28;20029;-88
2023/09/29 10:15:56;;;;;;;4.75;2.58;;;;;;;-148.88;92.23;-17125.47;5036704;28;20104;-87
2023/09/29 10:18:22;;;;;;;6.50;2.50;;;;;;;-148.88;91.25;-17125.47;5036881;28;20025;-89
2023/09/29 10:21:00;;;;;;;5.50;2.60;;;;;;;-148.88;91.24;-17125.47;5037418;28;20033;-88
2023/09/29 10:23:26;;;;;;;4.35;2.25;;;;;;;-148.88;92.27;-17125.47;5035721;28;20572;-85
2023/09/29 10:26:19;;;;;;;3.72;2.35;;;;;;;-148.88;91.39;-17125.47;5034732;28;20037;-87
2023/09/29 10:28:47;;;;;;;5.07;2.90;;;;;;;-148.88;92.74;-17125.47;5035901;28;20025;-87
2023/09/29 10:31:17;;;;;;;4.03;2.30;;;;;;;-148.88;95.57;-17125.47;5034577;28;20056;-87
2023/09/29 10:33:54;;;;;;;6.53;2.88;;;;;;;-148.88;94.58;-17125.47;5036060;28;20054;-86
2023/09/29 10:36:24;;;;;;;6.97;2.63;;;;;;;-148.88;94.41;-17125.47;5035513;28;20022;-87
2023/09/29 10:38:50;;;;;;;4.28;2.72;;;;;;;-148.88;95.56;-17125.47;5035785;28;20028;-87
2023/09/29 10:41:18;;;;;;;6.88;3.00;;;;;;;-148.88;96.07;-17125.47;5035439;28;20460;-86
2023/09/29 10:43:47;;;;;;;5.15;2.55;;;;;;;-148.88;96.41;-17125.47;5033639;28;20114;-87
2023/09/29 10:46:15;;;;;;;5.88;2.60;;;;;;;-148.88;97.27;-17125.47;5035112;28;20034;-86
2023/09/29 10:48:48;;;;;;;5.47;3.00;;;;;;;-148.88;97.97;-17125.47;5034422;28;20025;-87
2023/09/29 10:51:43;;;;;;;5.70;2.53;;;;;;;-148.88;97.88;-17125.47;5035700;28;20033;-86
2023/09/29 10:54:08;;;;;;;5.60;2.40;;;;;;;-148.88;97.91;-17125.47;5033589;28;20041;-86
2023/09/29 10:56:35;;;;;;;5.57;2.80;;;;;;;-148.88;97.83;-17125.47;5036400;28;20044;-87
2023/09/29 10:59:06;;;;;;;5.38;2.83;;;;;;;-148.88;99.08;-17125.47;5036700;28;20029;-87
2023/09/29 11:01:33;;;;;;;5.75;2.70;;;;;;;-148.88;99.25;-17125.47;5035866;28;20105;-86
2023/09/29 11:04:01;;;;;;;5.35;3.20;;;;;;;-148.88;99.61;-17125.47;5035391;28;20121;-87